Time;durP1;ratioP1;P1;durP2;ratioP2;P2;SDS_P1;SDS_P2;PMS_P1;PMS_P2;Temp;Humidity;BMP_temperature;BMP_pressure;BME280_temperature;BME280_humidity;BME280_pressure;Samples;Min_cycle;Max_cycle;Signal;HPM_P1;HPM_P2
2021/01/09 00:01:57;;;;;;;2.55;1.00;;;21.50;49.10;;;;;;5012291;28;20029;-60
2021/01/09 00:04:22;;;;;;;2.28;1.00;;;21.50;49.10;;;;;;5007584;28;20028;-60
2021/01/09 00:06:50;;;;;;;2.65;1.00;;;21.40;49.10;;;;;;5010020;28;20492;-63
2021/01/09 00:09:15;;;;;;;1.90;0.95;;;21.40;49.10;;;;;;5006482;28;20030;-61
2021/01/09 00:11:41;;;;;;;2.80;1.00;;;21.40;49.10;;;;;;5009751;28;20365;-60
2021/01/09 00:14:07;;;;;;;1.50;0.98;;;21.40;49.20;;;;;;5022568;28;20442;-60
2021/01/09 00:16:32;;;;;;;2.60;1.08;;;21.40;49.20;;;;;;5010000;28;20444;-61
2021/01/09 00:18:58;;;;;;;2.63;1.08;;;21.40;49.20;;;;;;5009480;28;20300;-61
2021/01/09 00:21:32;;;;;;;3.00;1.33;;;21.40;49.20;;;;;;5011447;28;20029;-63
2021/01/09 00:23:57;;;;;;;1.88;1.00;;;21.30;49.20;;;;;;5013421;28;20036;-62
2021/01/09 00:26:23;;;;;;;1.70;0.90;;;21.30;49.20;;;;;;5014120;28;20036;-63
2021/01/09 00:28:48;;;;;;;1.75;1.00;;;21.30;49.20;;;;;;5029226;28;20026;-61
2021/01/09 00:31:14;;;;;;;3.75;1.02;;;21.30;49.20;;;;;;5024690;28;20485;-61
2021/01/09 00:33:40;;;;;;;1.20;0.80;;;21.30;49.80;;;;;;5008019;28;20034;-61
2021/01/09 00:36:05;;;;;;;1.13;0.90;;;21.30;49.30;;;;;;5009865;28;20080;-62
2021/01/09 00:38:31;;;;;;;2.65;0.88;;;21.20;49.30;;;;;;5009490;28;20030;-63
2021/01/09 00:40:57;;;;;;;1.63;0.98;;;21.20;49.30;;;;;;5008923;28;20053;-62
2021/01/09 00:43:22;;;;;;;1.30;0.80;;;21.20;49.30;;;;;;5011217;28;20037;-59
2021/01/09 00:45:49;;;;;;;2.25;0.80;;;21.20;49.30;;;;;;5018774;28;20030;-62
2021/01/09 00:48:14;;;;;;;2.22;0.93;;;21.20;49.30;;;;;;5008562;28;20030;-61
2021/01/09 00:50:40;;;;;;;2.42;0.90;;;21.10;49.30;;;;;;5021771;28;20477;-61
2021/01/09 00:53:06;;;;;;;1.83;0.85;;;21.10;49.30;;;;;;5008320;28;20041;-62
2021/01/09 00:55:31;;;;;;;1.92;0.90;;;21.10;49.30;;;;;;5007743;28;20025;-59
2021/01/09 00:57:57;;;;;;;2.03;1.05;;;21.10;49.30;;;;;;5021025;28;20471;-63
2021/01/09 01:00:22;;;;;;;1.95;1.10;;;21.10;49.40;;;;;;5009057;28;20148;-62
2021/01/09 01:02:48;;;;;;;1.55;0.93;;;21.10;49.40;;;;;;5022561;28;20037;-63
2021/01/09 01:05:14;;;;;;;1.50;0.80;;;21.10;49.40;;;;;;5021136;28;20033;-64
2021/01/09 01:07:39;;;;;;;1.45;1.05;;;21.10;49.40;;;;;;5019577;28;20033;-61
2021/01/09 01:10:05;;;;;;;1.52;0.90;;;21.10;49.40;;;;;;5020803;28;20091;-60
2021/01/09 01:12:32;;;;;;;3.50;0.85;;;21.00;49.40;;;;;;5009573;28;20191;-64
2021/01/09 01:14:57;;;;;;;1.83;1.05;;;21.00;49.40;;;;;;5008911;28;20033;-66
2021/01/09 01:17:23;;;;;;;1.33;0.80;;;21.00;49.40;;;;;;5007826;28;20036;-61
2021/01/09 01:19:49;;;;;;;1.45;0.80;;;21.00;49.50;;;;;;5004257;28;20477;-66
2021/01/09 01:22:14;;;;;;;2.17;0.90;;;21.00;49.50;;;;;;5007967;28;20065;-63
2021/01/09 01:24:40;;;;;;;1.17;0.85;;;21.00;49.50;;;;;;5022708;28;20033;-61
2021/01/09 01:27:05;;;;;;;1.52;0.80;;;21.00;49.50;;;;;;5028094;28;20036;-62
2021/01/09 01:29:31;;;;;;;1.92;0.93;;;20.90;49.50;;;;;;5018933;28;20151;-62
2021/01/09 01:31:59;;;;;;;1.52;0.82;;;20.90;49.50;;;;;;5018580;28;20039;-62
2021/01/09 01:34:25;;;;;;;1.85;0.90;;;20.90;49.50;;;;;;5024498;28;20070;-60
2021/01/09 01:36:51;;;;;;;2.53;1.10;;;20.90;49.50;;;;;;5014816;28;20026;-62
2021/01/09 01:39:18;;;;;;;1.67;0.82;;;20.90;49.50;;;;;;5011291;28;20037;-62
2021/01/09 01:41:44;;;;;;;1.55;0.90;;;20.80;49.50;;;;;;5007885;28;20033;-63
2021/01/09 01:44:10;;;;;;;1.95;0.88;;;20.90;49.50;;;;;;5020116;28;20449;-64
2021/01/09 01:46:39;;;;;;;1.38;0.90;;;20.90;49.60;;;;;;5018245;28;20044;-64
2021/01/09 01:49:06;;;;;;;1.83;0.90;;;20.80;49.50;;;;;;5017453;28;20038;-65
2021/01/09 01:51:32;;;;;;;1.38;0.80;;;20.80;49.50;;;;;;5004644;28;20041;-60
2021/01/09 01:53:57;;;;;;;1.25;0.90;;;20.80;49.60;;;;;;5015879;28;20442;-60
2021/01/09 01:56:23;;;;;;;1.15;0.80;;;20.80;49.50;;;;;;5007417;28;20093;-61
2021/01/09 01:58:49;;;;;;;1.90;0.90;;;20.80;49.60;;;;;;5013698;28;20033;-66
2021/01/09 02:01:18;;;;;;;1.08;0.80;;;20.80;49.60;;;;;;5020858;28;20021;-65
2021/01/09 02:03:44;;;;;;;;;;;20.80;49.60;;;;;;5022960;28;20512;-63
2021/01/09 02:06:16;;;;;;;1.30;0.70;;;20.80;49.60;;;;;;5006041;28;19992;-64
2021/01/09 02:08:51;;;;;;;1.17;0.80;;;20.70;49.60;;;;;;5004358;28;20128;-64
2021/01/09 02:11:32;;;;;;;0.80;0.70;;;20.70;49.60;;;;;;5006367;28;20524;-63
2021/01/09 02:14:03;;;;;;;1.10;0.70;;;20.70;49.60;;;;;;5007783;28;20030;-61
2021/01/09 02:16:30;;;;;;;1.92;0.80;;;20.70;49.60;;;;;;5010048;28;20063;-64
2021/01/09 02:18:56;;;;;;;1.05;0.70;;;20.70;49.60;;;;;;5017861;28;20449;-62
2021/01/09 02:21:42;;;;;;;1.05;0.70;;;20.70;49.60;;;;;;5012466;28;20108;-66
2021/01/09 02:24:16;;;;;;;1.40;0.70;;;20.70;49.70;;;;;;5002731;28;20117;-64
2021/01/09 02:26:42;;;;;;;1.58;0.70;;;20.70;49.70;;;;;;5007177;28;20026;-65
2021/01/09 02:29:09;;;;;;;1.85;0.80;;;20.70;49.70;;;;;;5013920;28;20022;-64
2021/01/09 02:31:55;;;;;;;2.28;0.90;;;20.70;49.70;;;;;;5009070;28;20344;-62
2021/01/09 02:34:23;;;;;;;1.35;0.90;;;20.70;49.70;;;;;;5021545;28;20112;-61
2021/01/09 02:36:49;;;;;;;1.30;0.80;;;20.60;49.70;;;;;;5016136;28;20029;-63
2021/01/09 02:39:14;;;;;;;1.00;0.80;;;20.60;49.70;;;;;;5015789;28;20215;-64
2021/01/09 02:41:41;;;;;;;1.27;0.70;;;20.70;49.80;;;;;;5006445;28;20056;-62
2021/01/09 02:44:14;;;;;;;0.73;0.70;;;20.60;49.70;;;;;;5009714;28;20022;-60
2021/01/09 02:46:40;;;;;;;1.60;0.75;;;20.60;49.70;;;;;;5022185;28;20472;-61
2021/01/09 02:49:06;;;;;;;1.35;0.77;;;20.60;49.70;;;;;;5005587;28;20034;-63
2021/01/09 02:51:35;;;;;;;2.47;0.80;;;20.60;49.70;;;;;;5010227;28;20033;-61
2021/01/09 02:54:01;;;;;;;1.52;0.75;;;20.60;49.80;;;;;;5007178;28;20088;-62
2021/01/09 02:56:27;;;;;;;1.38;0.80;;;20.50;49.70;;;;;;5009796;28;20473;-63
2021/01/09 02:58:52;;;;;;;1.23;0.70;;;20.60;49.80;;;;;;5005764;28;20030;-62
2021/01/09 03:01:18;;;;;;;1.60;0.90;;;20.50;49.70;;;;;;5014683;28;20030;-63
2021/01/09 03:03:44;;;;;;;1.10;0.70;;;20.50;49.80;;;;;;5024733;28;20421;-62
2021/01/09 03:06:09;;;;;;;1.80;0.70;;;20.50;49.80;;;;;;5022258;28;20036;-61
2021/01/09 03:08:35;;;;;;;1.40;0.80;;;20.50;49.80;;;;;;5005616;28;20092;-60
2021/01/09 03:11:01;;;;;;;1.27;0.70;;;20.50;49.80;;;;;;5021554;28;20034;-60
2021/01/09 03:13:26;;;;;;;1.23;0.60;;;20.50;49.80;;;;;;5009946;28;20037;-61
2021/01/09 03:15:52;;;;;;;1.20;0.73;;;20.50;49.80;;;;;;5007019;28;20053;-61
2021/01/09 03:18:18;;;;;;;2.03;0.70;;;20.50;49.80;;;;;;5004990;28;20068;-64
2021/01/09 03:20:44;;;;;;;1.17;0.73;;;20.50;49.80;;;;;;5009506;28;20488;-62
2021/01/09 03:23:09;;;;;;;1.17;0.80;;;20.50;49.80;;;;;;5017845;28;20022;-62
2021/01/09 03:25:35;;;;;;;1.30;0.70;;;20.50;49.80;;;;;;5007003;28;20422;-62
2021/01/09 03:28:01;;;;;;;1.60;0.80;;;20.50;49.90;;;;;;5016277;28;20025;-61
2021/01/09 03:30:27;;;;;;;0.63;0.60;;;20.40;49.80;;;;;;5006142;28;20431;-59
2021/01/09 03:32:52;;;;;;;1.35;0.90;;;20.40;49.80;;;;;;5006561;28;20116;-62
2021/01/09 03:35:18;;;;;;;1.38;0.80;;;20.40;49.80;;;;;;5005775;28;20041;-62
2021/01/09 03:37:43;;;;;;;1.17;0.70;;;20.40;49.80;;;;;;5004583;28;20037;-62
2021/01/09 03:40:09;;;;;;;1.25;0.80;;;20.40;49.80;;;;;;5006165;28;20064;-62
2021/01/09 03:42:35;;;;;;;1.13;0.77;;;20.40;49.80;;;;;;5005413;28;20112;-62
2021/01/09 03:45:00;;;;;;;1.15;0.70;;;20.40;49.80;;;;;;5016090;28;20052;-61
2021/01/09 03:47:26;;;;;;;0.85;0.60;;;20.40;49.90;;;;;;5007998;28;20057;-62
2021/01/09 03:49:52;;;;;;;1.10;0.70;;;20.40;49.80;;;;;;5004782;28;20076;-62
2021/01/09 03:52:17;;;;;;;1.17;0.80;;;20.40;49.80;;;;;;5012212;28;20061;-62
2021/01/09 03:54:43;;;;;;;0.95;0.80;;;20.40;49.80;;;;;;5005066;28;20133;-62
2021/01/09 03:57:09;;;;;;;1.00;0.88;;;20.40;49.80;;;;;;5006235;28;20038;-63
2021/01/09 03:59:34;;;;;;;1.23;0.80;;;20.40;49.80;;;;;;5004525;28;20046;-61
2021/01/09 04:02:00;;;;;;;1.42;0.80;;;20.40;49.80;;;;;;5012960;28;20133;-62
2021/01/09 04:04:26;;;;;;;1.27;0.80;;;20.40;49.80;;;;;;5004584;28;20026;-61
2021/01/09 04:06:51;;;;;;;0.93;0.80;;;20.40;49.90;;;;;;5004678;28;20041;-62
2021/01/09 04:09:17;;;;;;;1.42;0.70;;;20.30;49.80;;;;;;5020517;28;20025;-60
2021/01/09 04:11:42;;;;;;;1.20;0.73;;;20.30;49.80;;;;;;5012933;28;20372;-61
2021/01/09 04:14:08;;;;;;;0.82;0.70;;;20.30;49.80;;;;;;5004724;28;20045;-62
2021/01/09 04:16:36;;;;;;;0.50;0.50;;;20.30;49.80;;;;;;5009224;28;20049;-64
2021/01/09 04:19:03;;;;;;;1.10;0.70;;;20.30;49.90;;;;;;5004131;28;20547;-63
2021/01/09 04:21:28;;;;;;;0.82;0.70;;;20.30;50.00;;;;;;5005459;28;20033;-61
2021/01/09 04:23:54;;;;;;;1.25;0.95;;;20.30;49.90;;;;;;5020664;28;20453;-62
2021/01/09 04:26:20;;;;;;;0.95;0.60;;;20.30;50.00;;;;;;5026066;28;20466;-60
2021/01/09 04:28:45;;;;;;;1.48;0.80;;;20.30;50.00;;;;;;5019007;28;20030;-65
2021/01/09 04:31:14;;;;;;;1.05;0.80;;;20.20;50.00;;;;;;5007342;28;20080;-60
2021/01/09 04:33:40;;;;;;;0.90;0.75;;;20.30;50.00;;;;;;5011369;28;20061;-61
2021/01/09 04:36:06;;;;;;;0.68;0.65;;;20.20;50.00;;;;;;5016753;28;20030;-64
2021/01/09 04:38:32;;;;;;;0.82;0.65;;;20.20;50.00;;;;;;5005028;28;20608;-65
2021/01/09 04:40:58;;;;;;;1.90;0.73;;;20.20;50.00;;;;;;5004814;28;20030;-64
2021/01/09 04:43:24;;;;;;;2.08;0.70;;;20.20;50.00;;;;;;5006128;28;20855;-61
2021/01/09 04:45:50;;;;;;;0.98;0.70;;;20.20;50.00;;;;;;5019705;28;20370;-63
2021/01/09 04:48:16;;;;;;;1.23;0.82;;;20.20;50.10;;;;;;5013526;28;20039;-60
2021/01/09 04:50:42;;;;;;;1.48;0.70;;;20.20;50.10;;;;;;5004767;28;20042;-61
2021/01/09 04:53:10;;;;;;;1.00;0.70;;;20.20;50.10;;;;;;5015649;28;20030;-67
2021/01/09 04:55:35;;;;;;;0.88;0.70;;;20.20;50.10;;;;;;5009000;28;20060;-59
2021/01/09 04:58:02;;;;;;;1.30;0.68;;;20.20;50.20;;;;;;5012242;28;20741;-66
2021/01/09 05:00:28;;;;;;;1.00;0.80;;;20.20;50.20;;;;;;5022303;28;20029;-61
2021/01/09 05:02:54;;;;;;;1.15;0.85;;;20.20;50.20;;;;;;5025123;28;20026;-62
2021/01/09 05:05:20;;;;;;;0.80;0.70;;;20.20;50.20;;;;;;5010375;28;20026;-62
2021/01/09 05:07:45;;;;;;;1.25;0.70;;;20.20;50.20;;;;;;5016967;28;20057;-62
2021/01/09 05:10:11;;;;;;;1.20;0.80;;;20.20;50.20;;;;;;5007602;28;20425;-60
2021/01/09 05:12:40;;;;;;;0.90;0.70;;;20.20;50.30;;;;;;5021231;28;20044;-63
2021/01/09 05:15:06;;;;;;;0.80;0.68;;;20.20;50.30;;;;;;5026377;28;20040;-60
2021/01/09 05:17:34;;;;;;;0.98;0.70;;;20.20;50.30;;;;;;5019676;28;20393;-64
2021/01/09 05:20:00;;;;;;;0.65;0.60;;;20.20;50.30;;;;;;5005854;28;20115;-62
2021/01/09 05:22:26;;;;;;;0.90;0.70;;;20.20;50.30;;;;;;5017712;28;20033;-61
2021/01/09 05:24:53;;;;;;;0.60;0.60;;;20.20;50.30;;;;;;5007450;28;20547;-59
2021/01/09 05:27:22;;;;;;;1.13;0.80;;;20.20;50.40;;;;;;5010140;28;20226;-61
2021/01/09 05:29:54;;;;;;;1.10;0.73;;;20.10;50.30;;;;;;5024074;28;20030;-63
2021/01/09 05:32:21;;;;;;;1.35;0.80;;;20.10;50.30;;;;;;5018769;28;20033;-65
2021/01/09 05:34:52;;;;;;;1.15;0.68;;;20.10;50.30;;;;;;5007531;28;20434;-61
2021/01/09 05:37:21;;;;;;;0.82;0.70;;;20.20;50.40;;;;;;5006644;28;20423;-62
2021/01/09 05:39:52;;;;;;;0.73;0.60;;;20.10;50.40;;;;;;5011693;28;20335;-60
2021/01/09 05:42:24;;;;;;;0.90;0.65;;;20.10;50.40;;;;;;5015805;28;20033;-64
2021/01/09 05:44:55;;;;;;;0.82;0.60;;;20.10;50.40;;;;;;5019121;28;20026;-62
2021/01/09 05:47:22;;;;;;;0.80;0.60;;;20.10;50.40;;;;;;5024941;28;20496;-62
2021/01/09 05:49:50;;;;;;;1.35;0.80;;;20.10;50.40;;;;;;5010809;28;20109;-63
2021/01/09 05:52:16;;;;;;;1.10;0.73;;;20.10;50.40;;;;;;5008127;28;20507;-61
2021/01/09 05:54:42;;;;;;;1.17;0.90;;;20.10;50.50;;;;;;5018551;28;20215;-59
2021/01/09 05:57:14;;;;;;;0.88;0.63;;;20.10;50.40;;;;;;5008288;28;20034;-61
2021/01/09 05:59:41;;;;;;;1.30;0.73;;;20.10;50.50;;;;;;5005977;28;20057;-61
2021/01/09 06:02:09;;;;;;;1.35;0.80;;;20.10;50.50;;;;;;5016317;28;20055;-62
2021/01/09 06:04:43;;;;;;;1.30;0.90;;;20.10;50.50;;;;;;5008066;28;20384;-61
2021/01/09 06:07:19;;;;;;;1.05;0.60;;;20.10;50.50;;;;;;5005561;28;20026;-61
2021/01/09 06:09:50;;;;;;;0.60;0.60;;;20.10;50.50;;;;;;5006482;28;20087;-62
2021/01/09 06:12:20;;;;;;;1.00;0.70;;;20.10;50.50;;;;;;5015101;28;20034;-61
2021/01/09 06:14:49;;;;;;;0.60;0.60;;;20.10;50.50;;;;;;5016100;28;20473;-62
2021/01/09 06:17:19;;;;;;;0.85;0.63;;;20.10;50.60;;;;;;5017031;28;20122;-64
2021/01/09 06:19:46;;;;;;;1.15;0.68;;;20.10;50.50;;;;;;5008189;28;20180;-63
2021/01/09 06:22:11;;;;;;;0.95;0.60;;;20.10;50.60;;;;;;5021349;28;20357;-61
2021/01/09 06:24:38;;;;;;;0.70;0.60;;;20.10;50.50;;;;;;5021174;28;20056;-64
2021/01/09 06:27:04;;;;;;;2.00;0.60;;;20.10;50.60;;;;;;5019836;28;20378;-63
2021/01/09 06:29:31;;;;;;;0.80;0.60;;;20.10;50.60;;;;;;5018183;28;20064;-60
2021/01/09 06:31:58;;;;;;;0.80;0.60;;;20.10;50.60;;;;;;5006294;28;20038;-61
2021/01/09 06:34:26;;;;;;;0.60;0.60;;;20.10;50.60;;;;;;5007132;28;20496;-61
2021/01/09 06:37:03;;;;;;;1.00;0.70;;;20.10;50.60;;;;;;5019891;28;20044;-64
2021/01/09 06:39:39;;;;;;;0.75;0.60;;;20.10;50.60;;;;;;5005756;28;20034;-62
2021/01/09 06:42:06;;;;;;;0.52;0.50;;;20.10;50.60;;;;;;5006648;28;20033;-59
2021/01/09 06:44:33;;;;;;;0.90;0.63;;;20.10;50.60;;;;;;5014542;28;20030;-62
2021/01/09 06:46:58;;;;;;;0.90;0.70;;;20.10;50.60;;;;;;5013608;28;20172;-62
2021/01/09 06:49:25;;;;;;;0.85;0.63;;;20.10;50.60;;;;;;5003803;28;20113;-63
2021/01/09 06:51:51;;;;;;;0.82;0.60;;;20.00;50.60;;;;;;5002269;28;20026;-66
2021/01/09 06:54:28;;;;;;;1.27;0.70;;;20.00;50.60;;;;;;5000788;28;20037;-62
2021/01/09 06:57:02;;;;;;;0.70;0.65;;;20.00;50.60;;;;;;5006503;28;20105;-61
2021/01/09 06:59:35;;;;;;;0.75;0.50;;;20.10;50.70;;;;;;5004697;28;20433;-61
2021/01/09 07:02:12;;;;;;;1.27;0.80;;;20.00;50.60;;;;;;5010686;28;20040;-63
2021/01/09 07:05:18;;;;;;;0.95;0.50;;;20.00;50.60;;;;;;5004422;28;20072;-60
2021/01/09 07:07:54;;;;;;;0.70;0.50;;;20.00;50.60;;;;;;5001816;28;20107;-63
2021/01/09 07:10:28;;;;;;;1.15;0.70;;;20.00;50.60;;;;;;5012526;28;20022;-60
2021/01/09 07:13:05;;;;;;;1.45;0.73;;;20.00;50.60;;;;;;5019226;28;20147;-63
2021/01/09 07:15:35;;;;;;;1.00;0.57;;;20.00;50.60;;;;;;5012138;28;20570;-64
2021/01/09 07:18:02;;;;;;;;;;;20.00;50.70;;;;;;5008439;28;20033;-61
2021/01/09 07:20:33;;;;;;;1.10;0.63;;;20.00;50.70;;;;;;5018469;28;19954;-61
2021/01/09 07:23:05;;;;;;;0.90;0.60;;;20.00;50.70;;;;;;5005288;28;20112;-61
2021/01/09 07:25:36;;;;;;;0.65;0.52;;;20.00;50.70;;;;;;5011478;28;20026;-63
2021/01/09 07:28:08;;;;;;;1.15;0.57;;;20.00;50.70;;;;;;5014550;28;20048;-62
2021/01/09 07:30:34;;;;;;;0.68;0.60;;;20.00;50.70;;;;;;5008269;28;20037;-64
2021/01/09 07:33:00;;;;;;;0.52;0.52;;;20.00;50.70;;;;;;5016061;28;20037;-60
2021/01/09 07:35:30;;;;;;;1.13;0.70;;;20.00;50.70;;;;;;5008441;28;20060;-62
2021/01/09 07:38:01;;;;;;;0.90;0.70;;;20.00;50.80;;;;;;5007872;28;20030;-62
2021/01/09 07:40:48;;;;;;;0.80;0.70;;;20.10;50.90;;;;;;5006804;28;20386;-62
2021/01/09 07:43:37;;;;;;;1.00;0.50;;;20.20;50.80;;;;;;5014359;28;20056;-62
2021/01/09 07:46:24;;;;;;;1.15;0.70;;;20.20;50.70;;;;;;5002537;28;20484;-61
2021/01/09 07:48:51;;;;;;;1.23;0.80;;;20.30;50.60;;;;;;5003630;28;20033;-65
2021/01/09 07:51:18;;;;;;;0.70;0.70;;;20.30;50.60;;;;;;5016143;28;20033;-64
2021/01/09 07:53:48;;;;;;;1.30;0.70;;;20.40;50.50;;;;;;5005104;28;20121;-62
2021/01/09 07:56:37;;;;;;;1.63;0.90;;;20.40;50.50;;;;;;5015446;28;20400;-63
2021/01/09 07:59:04;;;;;;;2.10;1.00;;;20.40;50.40;;;;;;5012230;28;20034;-62
2021/01/09 08:01:40;;;;;;;1.60;1.00;;;20.50;50.40;;;;;;5007384;28;20021;-61
2021/01/09 08:04:08;;;;;;;1.90;1.10;;;20.50;50.30;;;;;;5021650;28;20445;-62
2021/01/09 08:06:38;;;;;;;1.40;1.10;;;20.50;50.30;;;;;;5023237;28;20045;-64
2021/01/09 08:09:05;;;;;;;1.73;1.02;;;20.60;50.30;;;;;;5007832;28;20025;-62
2021/01/09 08:11:31;;;;;;;1.90;1.20;;;20.50;50.30;;;;;;5021256;28;20144;-60
2021/01/09 08:14:03;;;;;;;1.35;0.80;;;20.50;50.30;;;;;;5022292;28;20128;-61
2021/01/09 08:16:28;;;;;;;1.50;0.90;;;20.50;50.40;;;;;;5020368;28;20037;-64
2021/01/09 08:19:17;;;;;;;1.88;1.00;;;20.50;50.30;;;;;;5009760;28;20298;-62
2021/01/09 08:21:47;;;;;;;2.13;1.08;;;20.50;50.30;;;;;;5001755;28;20022;-61
2021/01/09 08:24:22;;;;;;;;;;;20.50;50.30;;;;;;5003873;28;20069;-63
2021/01/09 08:26:55;;;;;;;1.52;0.95;;;20.50;50.40;;;;;;5006359;28;19940;-64
2021/01/09 08:29:22;;;;;;;1.75;1.17;;;20.50;50.40;;;;;;5015297;28;20083;-61
2021/01/09 08:31:52;;;;;;;2.20;1.15;;;20.50;50.30;;;;;;5022431;28;20048;-63
2021/01/09 08:34:22;;;;;;;2.67;1.15;;;20.60;50.30;;;;;;5023614;28;20088;-61
2021/01/09 08:36:52;;;;;;;2.00;1.10;;;20.60;50.20;;;;;;5025972;28;20412;-61
2021/01/09 08:39:18;;;;;;;3.10;1.33;;;20.60;50.20;;;;;;5021192;28;20030;-63
2021/01/09 08:41:44;;;;;;;2.22;1.27;;;20.60;50.20;;;;;;5012122;28;20292;-63
2021/01/09 08:44:13;;;;;;;1.83;1.25;;;20.60;50.20;;;;;;5011141;28;20491;-61
2021/01/09 08:46:39;;;;;;;;;;;20.60;50.20;;;;;;5023757;28;20644;-62
2021/01/09 08:49:06;;;;;;;2.60;1.50;;;20.60;50.20;;;;;;5013634;28;19960;-65
2021/01/09 08:51:34;;;;;;;2.90;1.70;;;20.60;50.20;;;;;;5018440;28;20041;-63
2021/01/09 08:54:06;;;;;;;2.88;1.75;;;20.60;50.20;;;;;;5019853;28;20030;-62
2021/01/09 08:56:34;;;;;;;2.80;1.60;;;20.60;50.20;;;;;;5014144;28;20103;-62
2021/01/09 08:59:08;;;;;;;2.90;1.88;;;20.60;50.20;;;;;;5004546;28;20065;-64
2021/01/09 09:01:51;;;;;;;2.72;1.85;;;20.60;50.30;;;;;;5016142;28;20518;-61
2021/01/09 09:04:20;;;;;;;2.70;1.88;;;20.60;50.20;;;;;;5011914;28;20511;-62
2021/01/09 09:06:53;;;;;;;2.92;1.88;;;20.60;50.20;;;;;;5016848;28;20357;-62
2021/01/09 09:09:19;;;;;;;2.92;1.80;;;20.60;50.30;;;;;;5014479;28;20105;-62
2021/01/09 09:11:52;;;;;;;2.88;1.90;;;20.60;50.20;;;;;;5006024;28;20033;-63
2021/01/09 09:14:18;;;;;;;3.45;2.40;;;20.50;50.20;;;;;;5012233;28;20087;-64
2021/01/09 09:16:44;;;;;;;3.00;2.00;;;20.50;50.20;;;;;;5021894;28;20033;-63
2021/01/09 09:19:17;;;;;;;3.60;2.00;;;20.60;50.20;;;;;;5013451;28;20032;-64
2021/01/09 09:21:48;;;;;;;3.10;2.10;;;20.60;50.20;;;;;;5004852;28;20612;-64
2021/01/09 09:24:16;;;;;;;3.30;2.08;;;20.70;50.20;;;;;;5005252;28;20036;-64
2021/01/09 09:26:43;;;;;;;3.10;2.10;;;20.70;50.10;;;;;;5005595;28;20037;-65
2021/01/09 09:29:10;;;;;;;3.05;2.15;;;20.80;50.10;;;;;;5012933;28;20034;-67
2021/01/09 09:31:40;;;;;;;3.22;2.13;;;20.80;50.00;;;;;;5007174;28;20502;-65
2021/01/09 09:34:07;;;;;;;3.30;2.40;;;20.80;50.00;;;;;;5011734;28;20041;-65
2021/01/09 09:36:36;;;;;;;3.47;2.20;;;20.80;50.00;;;;;;5009531;28;20109;-65
2021/01/09 09:39:13;;;;;;;3.20;2.55;;;20.80;50.00;;;;;;5003458;28;20421;-63
2021/01/09 09:41:59;;;;;;;3.28;2.40;;;20.70;50.10;;;;;;5022691;28;20041;-63
2021/01/09 09:44:37;;;;;;;3.40;2.55;;;20.80;50.10;;;;;;5011495;28;20536;-63
2021/01/09 09:47:05;;;;;;;3.55;2.45;;;20.70;50.10;;;;;;5024565;28;20041;-63
2021/01/09 09:49:31;;;;;;;3.85;2.47;;;20.70;50.10;;;;;;5016540;28;20113;-62
2021/01/09 09:51:57;;;;;;;3.92;2.70;;;20.70;50.10;;;;;;5009553;28;20433;-63
2021/01/09 09:54:30;;;;;;;3.85;2.67;;;20.70;50.10;;;;;;5014002;28;20105;-63
2021/01/09 09:56:56;;;;;;;3.20;2.50;;;20.70;50.00;;;;;;5007953;28;20430;-63
2021/01/09 09:59:31;;;;;;;3.78;2.67;;;20.70;50.00;;;;;;5020679;28;20065;-64
2021/01/09 10:02:01;;;;;;;3.40;2.60;;;20.70;50.00;;;;;;5008659;28;20048;-63
2021/01/09 10:04:27;;;;;;;2.92;2.38;;;20.70;50.00;;;;;;5012132;28;20041;-65
2021/01/09 10:06:54;;;;;;;3.22;2.67;;;20.70;50.00;;;;;;5018871;28;20393;-63
2021/01/09 10:09:21;;;;;;;3.50;2.65;;;20.70;50.00;;;;;;5014116;28;20100;-62
2021/01/09 10:11:49;;;;;;;3.70;2.70;;;20.70;50.10;;;;;;5020863;28;20034;-62
2021/01/09 10:14:14;;;;;;;3.90;2.65;;;20.70;50.00;;;;;;5010472;28;20049;-64
2021/01/09 10:16:40;;;;;;;3.55;2.80;;;20.70;50.00;;;;;;5009790;28;20030;-63
2021/01/09 10:19:06;;;;;;;3.97;2.80;;;20.70;50.10;;;;;;5014648;28;20277;-62
2021/01/09 10:21:33;;;;;;;3.80;2.70;;;20.70;50.10;;;;;;5007952;28;20050;-65
2021/01/09 10:24:00;;;;;;;3.75;2.78;;;20.70;50.10;;;;;;5008958;28;20035;-63
2021/01/09 10:26:27;;;;;;;3.83;2.70;;;20.70;50.00;;;;;;5015247;28;20049;-63
2021/01/09 10:28:53;;;;;;;4.43;2.70;;;20.60;49.90;;;;;;5012267;28;20109;-62
2021/01/09 10:31:26;;;;;;;3.80;2.70;;;20.70;50.00;;;;;;5015334;28;20030;-62
2021/01/09 10:33:52;;;;;;;3.75;2.67;;;20.70;49.90;;;;;;5011062;28;20084;-63
2021/01/09 10:36:25;;;;;;;4.03;2.90;;;20.60;49.90;;;;;;5017167;28;20431;-63
2021/01/09 10:38:51;;;;;;;3.92;2.85;;;20.70;49.90;;;;;;5015077;28;20102;-66
2021/01/09 10:41:17;;;;;;;3.78;2.80;;;20.60;49.80;;;;;;5006425;28;20327;-63
2021/01/09 10:43:42;;;;;;;3.90;2.92;;;20.60;49.80;;;;;;5009709;28;20050;-65
2021/01/09 10:46:08;;;;;;;3.67;3.05;;;20.60;49.80;;;;;;5026438;28;20022;-65
2021/01/09 10:48:34;;;;;;;4.00;2.97;;;20.60;49.80;;;;;;5017108;28;20091;-64
2021/01/09 10:51:00;;;;;;;4.07;3.10;;;20.60;49.80;;;;;;5007548;28;20108;-63
2021/01/09 10:53:25;;;;;;;3.45;2.63;;;20.60;49.80;;;;;;5011343;28;20926;-64
2021/01/09 10:55:55;;;;;;;4.03;2.83;;;20.60;49.80;;;;;;5015822;28;20028;-64
2021/01/09 10:58:20;;;;;;;4.07;3.00;;;20.60;49.70;;;;;;5022675;28;20026;-64
2021/01/09 11:00:46;;;;;;;3.88;3.13;;;20.60;49.70;;;;;;5012092;28;20043;-67
2021/01/09 11:03:12;;;;;;;3.95;3.08;;;20.60;49.70;;;;;;5015517;28;20547;-64
2021/01/09 11:05:41;;;;;;;3.97;3.13;;;20.60;49.70;;;;;;5010137;28;20423;-63
2021/01/09 11:08:07;;;;;;;3.92;3.03;;;20.60;49.70;;;;;;5008765;28;20108;-66
2021/01/09 11:10:32;;;;;;;4.22;2.97;;;20.60;49.70;;;;;;5008521;28;20042;-67
2021/01/09 11:12:58;;;;;;;4.13;3.15;;;20.60;49.70;;;;;;5011613;28;20033;-63
2021/01/09 11:15:24;;;;;;;3.88;3.00;;;20.60;49.70;;;;;;5012594;28;20504;-63
2021/01/09 11:17:50;;;;;;;3.83;3.00;;;20.60;49.70;;;;;;5014228;28;20144;-64
2021/01/09 11:20:16;;;;;;;4.30;2.92;;;20.60;49.70;;;;;;5010020;28;20038;-64
2021/01/09 11:22:41;;;;;;;3.92;2.90;;;20.60;49.70;;;;;;5013818;28;20356;-63
2021/01/09 11:25:07;;;;;;;5.18;3.15;;;20.60;49.70;;;;;;5006752;28;20036;-62
2021/01/09 11:27:33;;;;;;;3.70;3.00;;;20.60;49.70;;;;;;5011240;28;20018;-64
2021/01/09 11:29:58;;;;;;;4.15;2.63;;;20.60;49.70;;;;;;5021747;28;20458;-64
2021/01/09 11:32:24;;;;;;;4.03;3.08;;;20.60;49.70;;;;;;5006436;28;20052;-65
2021/01/09 11:34:50;;;;;;;4.68;3.00;;;20.60;49.70;;;;;;5018024;28;20116;-69
2021/01/09 11:37:16;;;;;;;4.50;2.90;;;20.60;49.70;;;;;;5014451;28;20156;-65
2021/01/09 11:39:41;;;;;;;3.80;2.90;;;20.60;49.80;;;;;;5011140;28;20520;-65
2021/01/09 11:42:09;;;;;;;3.45;2.63;;;20.70;49.90;;;;;;5019499;28;20021;-63
2021/01/09 11:44:35;;;;;;;4.07;2.85;;;20.70;49.80;;;;;;5004936;28;20033;-65
2021/01/09 11:47:00;;;;;;;4.18;2.90;;;20.80;49.80;;;;;;5006968;28;20039;-64
2021/01/09 11:49:27;;;;;;;4.43;2.60;;;20.80;49.60;;;;;;5020461;28;20038;-65
2021/01/09 11:51:54;;;;;;;3.38;2.72;;;20.80;49.60;;;;;;5003893;28;20095;-63
2021/01/09 11:54:20;;;;;;;3.72;2.85;;;20.80;49.70;;;;;;5015202;28;20457;-65
2021/01/09 11:56:45;;;;;;;3.53;2.90;;;20.80;49.80;;;;;;5010253;28;20030;-62
2021/01/09 11:59:11;;;;;;;3.92;3.00;;;20.80;49.90;;;;;;5014760;28;20037;-62
2021/01/09 12:01:38;;;;;;;3.42;2.63;;;20.80;49.90;;;;;;5012175;28;20036;-64
2021/01/09 12:04:07;;;;;;;3.90;2.75;;;20.80;50.00;;;;;;5021237;28;20053;-64
2021/01/09 12:06:33;;;;;;;4.50;2.92;;;20.80;49.90;;;;;;5019355;28;20030;-65
2021/01/09 12:08:58;;;;;;;3.60;2.90;;;20.80;50.00;;;;;;5011984;28;20045;-65
2021/01/09 12:11:24;;;;;;;3.35;2.60;;;20.80;50.10;;;;;;5011554;28;20135;-63
2021/01/09 12:13:50;;;;;;;3.60;2.70;;;20.80;50.10;;;;;;5015055;28;20425;-64
2021/01/09 12:16:25;;;;;;;3.63;2.65;;;20.80;50.20;;;;;;5022235;28;20040;-65
2021/01/09 12:18:51;;;;;;;3.65;2.88;;;20.80;50.20;;;;;;5014484;28;20060;-64
2021/01/09 12:21:16;;;;;;;3.85;3.10;;;20.80;50.40;;;;;;5017200;28;20041;-64
2021/01/09 12:23:42;;;;;;;5.25;2.83;;;20.80;50.40;;;;;;5016781;28;20040;-64
2021/01/09 12:26:07;;;;;;;5.38;2.90;;;20.80;50.60;;;;;;5020984;28;20021;-67
2021/01/09 12:28:33;;;;;;;3.20;2.53;;;20.80;50.60;;;;;;5008987;28;20045;-67
2021/01/09 12:30:58;;;;;;;2.97;2.40;;;20.80;50.60;;;;;;5009883;28;20084;-63
2021/01/09 12:33:24;;;;;;;3.55;2.58;;;20.80;50.50;;;;;;5010305;28;20064;-66
2021/01/09 12:35:51;;;;;;;3.53;2.55;;;20.90;51.00;;;;;;5015109;28;20673;-65
2021/01/09 12:38:22;;;;;;;6.80;3.20;;;20.80;51.20;;;;;;5017266;28;20073;-67
2021/01/09 12:40:48;;;;;;;4.65;3.05;;;20.90;51.10;;;;;;5012270;28;20045;-63
2021/01/09 12:43:13;;;;;;;3.50;2.50;;;20.90;51.10;;;;;;5009275;28;20931;-67
2021/01/09 12:45:39;;;;;;;3.35;2.45;;;21.00;51.10;;;;;;5017710;28;20028;-68
2021/01/09 12:48:05;;;;;;;3.85;2.65;;;21.00;51.00;;;;;;5031793;28;20037;-67
2021/01/09 12:50:30;;;;;;;4.30;2.40;;;21.00;51.20;;;;;;5008688;28;20065;-63
2021/01/09 12:52:56;;;;;;;3.15;2.38;;;21.10;51.60;;;;;;5012601;28;20661;-66